Terminal Aerodrome Forecast
Issued by NWS Mt. Holly, NJ

Home | Current Version | Previous Version | Text Only | Print | Product List | Glossary On
Versions: 1 2 3 4 5 6 7 8 9 10 11 12 13 14
000
FTUS41 KPHI 312324
TAFABE
TAF
KABE 312324Z 0100/0124 VRB03KT P6SM VCSH FEW040 BKN100
      TEMPO 0100/0104 4SM -SHRA BR OVC040
     FM010400 VRB03KT P6SM VCSH SCT020 BKN040
      TEMPO 0105/0109 3SM SHRA BR OVC020
     FM010900 VRB03KT 5SM BR VCSH OVC020
     FM011100 35005KT P6SM BKN040
     FM011600 01005KT P6SM SCT050 BKN250
     FM012000 36005KT P6SM SCT250=

USA.gov is the U.S. government's official web portal to all federal, state and local government web resources and services.